Greeley, Colorado
Current Conditions -  °F | °C
As of 9:35 PM on Thursday 20 Nov 2014 (Local Time) from KGXY Reporting Station
Clear Clear  
Wind Chill: 23°   Ceiling: Unl
Heat Index: 30°   Visibility: 10mi
Dew Point: 18°   Wind: 8mph
Humidity: 60%   Direction: 320°NW
Pressure: 29.97"   Gusts: NA
Location:  40.42°N, 104.69°W
Report Text: KGXY 210435Z AUTO 32007KT 10SM CLR M01/M08 A2997 RMK AO1
Loading
Personal Weather Stations






























Interactive Weather Map New forecast layout! Learn more

10-Day Weather Forecast

Advertisements
Track Severe Weather on mobile